LOWS/SZG METAR and TAF weather

Enter ICAO airport designator
Station Type Date Time Source
LOWS METAR 2021/09/24 03:20 UTC NOAA

LOWS 240320Z AUTO 18005KT 9999 FEW042 BKN050 09/08 Q1020


Station Type Date Time Source
LOWS Decoded METAR 2021/09/24 03:20 UTC NOAA

Salzburg-Flughafen, Austria (LOWS) 47-48N 013-00E 450M
Sep 23, 2021 - 11:20 PM EDT / 2021.09.24 0320 UTC
Wind: from the S (180 degrees) at 6 MPH (5 KT):0
Visibility: greater than 7 mile(s):0
Sky conditions: mostly cloudy
Temperature: 48 F (9 C)
Dew Point: 46 F (8 C)
Relative Humidity: 93%
Pressure (altimeter): 30.12 in. Hg (1020 hPa)
ob: LOWS 240320Z AUTO 18005KT 9999 FEW042 BKN050 09/08 Q1020
cycle: 3

Station Type Date Time Source
LOWS TAF 2021/09/23 18:27 UTC NOAA

TAF TAF LOWS 231715Z 2318/2418 15007KT CAVOK TX21/2414Z TN11/2403Z
BECMG 2403/2405 9999 SCT040
BECMG 2409/2411 34006KT
BECMG 2416/2418 15007KT CAVOK

Example: see airport list